Latest Weather Observations for Groote Eylandt Airport

IDD60801

Issued at 3:01 pm CST Wednesday 1 April 2015 (issued every 30 minutes, with the page automatically refreshed every 10 minutes)

About weather observations | Map of weather stations | Latest weather observations for NT | Other Formats
Station Details ID: 014518 Name: GROOTE EYLANDT AIRPORT Lat: -13.97 Lon: 136.46 Height: 13.7 m
Data from the previous 72 hours. | See also: Recent months at Groote Eylandt Airport
Date/Time
CST
Temp
°C
App
Temp
°C
Dew
Point
Rel
Hum
%
Delta-T
°C
Wind Press
QNH
hPa
Press
MSL
hPa
Rain
since 9 am
mm
Dir
 
Spd
km/h
Gust
km/h
Spd
kts
Gust
kts
01/03:00pm 31.3 37.6 25.9 73 3.9 W 4 9 2 5 1009.1 1009.0 0.4
01/02:44pm 29.8 33.2 24.0 71 4.0 W 13 19 7 10 1009.1 1009.0 0.4
01/02:30pm 31.0 35.5 24.6 68 4.5 W 9 19 5 10 1009.2 1009.1 0.0
01/02:00pm 31.8 35.7 24.9 67 4.9 WNW 13 20 7 11 1009.5 1009.4 0.0
01/01:30pm 32.1 36.3 25.4 67 4.8 W 13 20 7 11 1009.7 1009.6 0.0
01/01:00pm 31.4 36.0 25.3 70 4.3 W 11 17 6 9 1010.2 1010.1 0.0
01/12:30pm 31.3 35.0 25.2 70 4.3 W 15 20 8 11 1010.5 1010.4 0.0
01/12:00pm 31.1 35.1 25.0 70 4.3 W 13 19 7 10 1010.9 1010.8 0.0
01/11:30am 33.1 38.6 26.1 66 5.0 ENE 9 15 5 8 1011.5 1011.4 0.0
01/11:00am 32.3 37.6 26.4 71 4.2 E 11 17 6 9 1012.0 1011.9 0.0
01/10:30am 32.1 38.9 27.3 76 3.5 S 6 9 3 5 1012.4 1012.3 0.0
01/10:00am 31.0 37.9 26.9 79 3.0 ENE 4 9 2 5 1012.5 1012.4 0.0
01/09:30am 30.2 36.6 26.6 81 2.6 ENE 6 7 3 4 1012.5 1012.4 0.0
01/09:00am 29.4 36.8 26.4 84 2.1 CALM 0 0 0 0 1012.5 1012.4 0.0
01/08:30am 27.9 34.8 25.7 88 1.6 CALM 0 6 0 3 1012.3 1012.2 0.0
01/08:00am 26.2 31.4 24.2 89 1.4 SE 4 7 2 4 1012.0 1011.9 0.0
01/07:30am 24.8 29.0 23.2 91 1.1 NE 6 7 3 4 1011.6 1011.5 0.0
01/07:00am 23.0 27.4 21.4 91 1.1 CALM 0 0 0 0 1011.4 1011.3 0.0
01/06:30am 22.4 26.6 20.9 91 1.0 CALM 0 0 0 0 1011.1 1011.0 0.0
01/06:00am 22.5 26.6 20.8 90 1.1 CALM 0 0 0 0 1010.9 1010.8 0.0
01/05:30am 22.5 26.6 20.8 90 1.1 CALM 0 0 0 0 1010.6 1010.5 0.0
01/05:00am 22.6 26.8 20.9 90 1.1 CALM 0 0 0 0 1010.4 1010.3 0.0
01/04:30am 22.4 26.5 20.7 90 1.1 CALM 0 0 0 0 1010.3 1010.2 0.0
01/04:00am 22.8 26.3 21.1 90 1.1 E 4 7 2 4 1010.0 1009.9 0.0
01/03:30am 22.6 26.3 20.7 89 1.2 E 2 6 1 3 1009.9 1009.8 0.0
01/03:00am 23.0 26.1 21.1 89 1.2 E 6 7 3 4 1009.9 1009.8 0.0
01/02:30am 23.4 27.8 21.3 88 1.4 CALM 0 0 0 0 1010.0 1009.9 0.0
01/02:00am 23.4 27.8 21.3 88 1.4 CALM 0 0 0 0 1010.2 1010.1 0.0
01/01:30am 23.8 28.3 21.5 87 1.5 CALM 0 0 0 0 1010.4 1010.3 0.0
01/01:00am 23.9 28.4 21.6 87 1.5 CALM 0 0 0 0 1011.0 1010.9 0.0
01/12:30am 24.2 28.8 21.7 86 1.7 CALM 0 0 0 0 1011.4 1011.3 0.0
01/12:00am 24.5 29.2 22.0 86 1.7 CALM 0 0 0 0 1011.5 1011.4 0.0
 
Date/Time
CST
Temp
°C
App
Temp
°C
Dew
Point
Rel
Hum
%
Delta-T
°C
Wind Press
QNH
hPa
Press
MSL
hPa
Rain
since 9 am
mm
Dir
 
Spd
km/h
Gust
km/h
Spd
kts
Gust
kts
31/11:30pm 24.9 29.8 22.4 86 1.7 CALM 0 0 0 0 1011.9 1011.8 0.0
31/11:00pm 24.8 29.5 21.9 84 1.9 CALM 0 0 0 0 1012.1 1012.0 0.0
31/10:30pm 25.4 29.1 22.3 83 2.1 E 6 6 3 3 1012.3 1012.2 0.0
31/10:00pm 25.8 29.5 22.5 82 2.2 E 7 7 4 4 1012.3 1012.2 0.0
31/09:30pm 26.3 31.4 22.6 80 2.5 CALM 0 0 0 0 1012.2 1012.1 0.0
31/09:00pm 26.4 31.4 22.5 79 2.6 CALM 0 0 0 0 1012.1 1012.0 0.0
31/08:30pm 27.1 31.8 22.7 77 3.0 E 2 6 1 3 1011.9 1011.8 0.0
31/08:00pm 27.7 31.8 22.9 75 3.3 E 6 7 3 4 1011.8 1011.7 0.0
31/07:30pm 28.3 32.4 23.0 73 3.6 E 6 7 3 4 1011.7 1011.6 0.0
31/07:00pm 28.9 32.8 22.9 70 4.1 ESE 7 9 4 5 1011.6 1011.5 0.0
31/06:30pm 30.0 34.7 23.4 67 4.5 ESE 4 7 2 4 1011.3 1011.2 0.0
31/06:00pm 30.6 35.3 24.0 68 4.6 SSW 6 7 3 4 1010.9 1010.8 0.0
31/05:30pm 31.3 36.2 24.4 66 4.8 SSW 6 7 3 4 1010.7 1010.6 0.0
31/05:00pm 31.5 35.8 23.3 61 5.7 SE 6 11 3 6 1010.5 1010.4 0.0
31/04:30pm 31.9 36.9 24.5 65 5.2 WNW 6 11 3 6 1010.3 1010.2 0.0
31/04:00pm 32.2 36.2 23.7 61 5.9 E 9 17 5 9 1010.2 1010.1 0.0
31/03:30pm 31.3 36.6 23.7 64 5.3 WNW 2 6 1 3 1010.1 1010.0 0.0
31/03:00pm 32.6 37.4 24.1 61 5.9 SSW 6 11 3 6 1010.1 1010.0 0.0
31/02:30pm 32.7 35.4 22.2 54 7.2 ESE 11 20 6 11 1010.1 1010.0 0.0
31/02:00pm 34.0 35.5 23.1 53 7.5 E 20 28 11 15 1010.5 1010.4 0.0
31/01:30pm 33.9 35.7 23.6 55 7.2 ESE 20 30 11 16 1010.9 1010.8 0.0
31/01:00pm 33.5 36.0 23.8 57 6.8 ESE 17 30 9 16 1011.3 1011.2 0.0
31/12:30pm 33.5 36.5 24.7 60 6.2 E 17 28 9 15 1011.7 1011.6 0.0
31/12:00pm 33.4 36.4 25.6 63 5.6 E 20 28 11 15 1012.2 1012.1 0.0
31/11:30am 32.8 36.6 25.9 67 4.9 ESE 17 26 9 14 1012.6 1012.5 0.0
31/11:00am 32.0 36.5 25.8 69 4.4 E 13 19 7 10 1013.1 1013.0 0.0
31/10:30am 31.9 36.7 26.2 72 4.1 ENE 13 17 7 9 1013.4 1013.3 0.0
31/10:00am 31.6 36.9 26.4 74 3.7 NE 11 20 6 11 1013.7 1013.6 0.0
31/09:30am 30.8 35.4 26.5 78 3.1 E 15 20 8 11 1013.9 1013.8 0.0
31/09:00am 30.3 35.4 26.7 81 2.6 ENE 13 20 7 11 1013.7 1013.6 0.0
31/08:30am 29.0 34.9 26.2 85 2.0 E 7 9 4 5 1013.5 1013.4 0.0
31/08:00am 26.9 33.2 24.7 88 1.5 CALM 0 0 0 0 1013.4 1013.3 0.0
31/07:30am 23.8 28.6 22.2 91 1.1 CALM 0 0 0 0 1013.0 1012.9 0.0
31/07:00am 22.2 26.3 20.7 91 1.0 CALM 0 2 0 1 1012.4 1012.3 0.0
31/06:30am 21.9 24.5 20.4 91 1.0 E 7 9 4 5 1012.1 1012.0 0.0
31/06:00am 21.8 24.8 20.1 90 1.1 E 4 7 2 4 1011.7 1011.6 0.0
31/05:30am 22.1 26.0 20.4 90 1.1 CALM 0 0 0 0 1011.6 1011.5 0.0
31/05:00am 22.1 26.0 20.4 90 1.1 CALM 0 0 0 0 1011.4 1011.3 0.0
31/04:30am 22.3 26.3 20.6 90 1.1 CALM 0 0 0 0 1011.4 1011.3 0.0
31/04:00am 22.5 25.3 20.8 90 1.1 E 7 7 4 4 1011.2 1011.1 0.0
31/03:30am 22.7 25.7 20.8 89 1.2 E 6 7 3 4 1011.2 1011.1 0.0
31/03:00am 22.8 26.1 20.7 88 1.4 ESE 4 6 2 3 1011.4 1011.3 0.0
31/02:30am 23.2 27.1 21.1 88 1.4 E 2 7 1 4 1011.7 1011.6 0.0
31/02:00am 23.6 28.0 21.3 87 1.5 CALM 0 0 0 0 1011.9 1011.8 0.0
31/01:30am 24.0 28.6 21.7 87 1.5 CALM 0 0 0 0 1012.3 1012.2 0.0
31/01:00am 24.3 29.0 22.0 87 1.5 CALM 0 0 0 0 1012.7 1012.6 0.0
31/12:30am 24.1 28.6 21.6 86 1.7 CALM 0 0 0 0 1013.0 1012.9 0.0
31/12:00am 24.6 29.3 21.9 85 1.8 CALM 0 0 0 0 1013.2 1013.1 0.0
 
Date/Time
CST
Temp
°C
App
Temp
°C
Dew
Point
Rel
Hum
%
Delta-T
°C
Wind Press
QNH
hPa
Press
MSL
hPa
Rain
since 9 am
mm
Dir
 
Spd
km/h
Gust
km/h
Spd
kts
Gust
kts
30/11:30pm 25.2 30.1 22.3 84 1.9 CALM 0 0 0 0 1013.5 1013.4 0.0
30/11:00pm 25.2 30.0 22.1 83 2.1 CALM 0 0 0 0 1013.7 1013.6 0.0
30/10:30pm 25.6 30.5 22.3 82 2.2 CALM 0 0 0 0 1013.6 1013.5 0.0
30/10:00pm 26.0 30.9 22.3 80 2.5 CALM 0 0 0 0 1013.6 1013.5 0.0
30/09:30pm 26.3 31.1 22.2 78 2.8 CALM 0 0 0 0 1013.6 1013.5 0.0
30/09:00pm 26.8 31.6 22.2 76 3.1 CALM 0 0 0 0 1013.6 1013.5 0.0
30/08:30pm 27.3 31.4 22.3 74 3.4 ESE 4 6 2 3 1013.4 1013.3 0.0
30/08:00pm 28.0 32.8 22.2 70 3.9 CALM 0 0 0 0 1013.1 1013.0 0.0
30/07:30pm 28.4 32.1 22.2 69 4.2 SE 6 11 3 6 1012.8 1012.7 0.0
30/07:00pm 29.1 32.2 22.1 66 4.7 ESE 9 13 5 7 1012.5 1012.4 0.0
30/06:30pm 29.8 33.0 22.3 64 5.1 ESE 9 17 5 9 1012.2 1012.1 0.0
30/06:00pm 30.5 33.4 22.4 62 5.5 ESE 11 17 6 9 1012.0 1011.9 0.0
30/05:30pm 31.5 34.7 23.1 61 5.8 ESE 11 20 6 11 1011.6 1011.5 0.0
30/05:00pm 32.6 34.4 23.3 58 6.4 E 19 24 10 13 1011.2 1011.1 0.0
30/04:30pm 32.6 33.9 22.7 56 6.8 E 20 24 11 13 1011.3 1011.2 0.0
30/04:00pm 33.0 34.7 23.0 55 6.9 E 19 30 10 16 1011.2 1011.1 0.0
30/03:30pm 32.5 34.2 22.3 55 7.0 E 17 24 9 13 1011.1 1011.0 0.0
30/03:00pm 33.3 34.6 22.7 53 7.3 ENE 20 32 11 17 1011.3 1011.2 0.0
30/02:30pm 33.5 34.5 22.9 53 7.3 E 22 30 12 16 1011.5 1011.4 0.0
30/02:00pm 33.4 34.5 23.7 56 6.8 E 24 35 13 19 1011.5 1011.4 0.0
30/01:30pm 31.3 34.0 23.4 63 5.5 ESE 15 33 8 18 1011.9 1011.8 0.0
30/01:00pm 34.3 36.8 24.8 57 6.7 E 20 33 11 18 1012.2 1012.1 0.0
30/12:30pm 33.4 33.7 24.3 59 6.4 ENE 30 37 16 20 1012.7 1012.6 0.0
30/12:00pm 32.7 34.3 23.9 60 6.1 E 22 41 12 22 1013.1 1013.0 0.0
30/11:30am 32.8 34.4 24.5 61 5.8 E 24 37 13 20 1013.5 1013.4 0.0
30/11:00am 32.3 34.9 24.9 65 5.2 E 20 33 11 18 1013.8 1013.7 0.0
30/10:30am 32.4 34.7 25.7 68 4.8 E 24 32 13 17 1014.1 1014.0 0.0
30/10:00am 31.3 35.1 25.9 73 3.8 E 17 24 9 13 1014.4 1014.3 0.0
30/09:30am 30.8 34.4 26.1 76 3.4 ENE 19 28 10 15 1014.3 1014.2 0.0
30/09:00am 30.5 34.5 26.7 80 2.7 ENE 19 26 10 14 1014.3 1014.2 0.0
30/08:30am 29.2 34.0 26.2 84 2.1 ENE 13 17 7 9 1013.9 1013.8 0.0
30/08:00am 27.9 34.8 25.7 88 1.6 CALM 0 0 0 0 1013.6 1013.5 0.0
30/07:30am 24.8 30.1 23.0 90 1.2 CALM 0 0 0 0 1013.1 1013.0 0.0
30/07:00am 22.9 27.3 21.4 91 1.0 CALM 0 0 0 0 1012.7 1012.6 0.0
30/06:30am 22.3 26.4 20.8 91 1.0 CALM 0 0 0 0 1012.3 1012.2 0.0
30/06:00am 22.2 26.3 20.7 91 1.0 CALM 0 6 0 3 1012.1 1012.0 0.0
30/05:30am 22.5 25.6 21.0 91 1.0 E 6 9 3 5 1011.8 1011.7 0.0
30/05:00am 22.6 26.8 20.9 90 1.1 CALM 0 0 0 0 1011.6 1011.5 0.0
30/04:30am 22.5 26.6 20.8 90 1.1 CALM 0 0 0 0 1011.5 1011.4 0.0
30/04:00am 22.8 27.1 21.1 90 1.1 CALM 0 0 0 0 1011.6 1011.5 0.0
30/03:30am 22.8 27.0 20.9 89 1.2 CALM 0 0 0 0 1011.7 1011.6 0.0
30/03:00am 22.9 27.1 21.0 89 1.2 CALM 0 0 0 0 1011.7 1011.6 0.0
30/02:30am 22.6 25.5 20.7 89 1.2 ESE 6 7 3 4 1011.8 1011.7 0.0
30/02:00am 22.8 26.9 20.7 88 1.4 CALM 0 0 0 0 1012.0 1011.9 0.0
30/01:30am 23.1 26.9 21.0 88 1.4 ENE 2 6 1 3 1012.5 1012.4 0.0
30/01:00am 23.2 27.4 20.9 87 1.5 CALM 0 0 0 0 1012.8 1012.7 0.0
30/12:30am 23.5 27.8 21.2 87 1.5 CALM 0 0 0 0 1013.3 1013.2 0.0
30/12:00am 23.7 28.0 21.2 86 1.6 CALM 0 0 0 0 1013.4 1013.3 0.0
 
Date/Time
CST
Temp
°C
App
Temp
°C
Dew
Point
Rel
Hum
%
Delta-T
°C
Wind Press
QNH
hPa
Press
MSL
hPa
Rain
since 9 am
mm
Dir
 
Spd
km/h
Gust
km/h
Spd
kts
Gust
kts
29/11:30pm 24.5 29.1 21.8 85 1.8 CALM 0 0 0 0 1013.7 1013.6 0.0
29/11:00pm 24.5 29.0 21.6 84 1.9 CALM 0 0 0 0 1013.8 1013.7 0.0
29/10:30pm 24.8 29.4 21.7 83 2.1 CALM 0 0 0 0 1013.6 1013.5 0.0
29/10:00pm 25.1 29.7 21.8 82 2.2 CALM 0 0 0 0 1013.6 1013.5 0.0
29/09:30pm 25.5 30.1 21.8 80 2.5 CALM 0 0 0 0 1013.5 1013.4 0.0
29/09:00pm 25.7 30.2 21.6 78 2.7 CALM 0 0 0 0 1013.3 1013.2 0.0
29/08:30pm 26.3 29.7 21.7 76 3.1 ESE 6 7 3 4 1013.1 1013.0 0.0
29/08:00pm 27.5 31.2 22.2 73 3.6 E 6 7 3 4 1012.9 1012.8 0.0
29/07:30pm 28.0 32.0 22.0 70 4.0 ESE 4 7 2 4 1012.8 1012.7 0.0
29/07:00pm 28.6 31.9 21.9 67 4.5 ESE 7 11 4 6 1012.7 1012.6 0.0
29/06:30pm 29.4 32.0 21.9 64 5.1 ESE 11 19 6 10 1012.4 1012.3 0.0
29/06:00pm 30.4 32.6 21.8 60 5.8 E 13 20 7 11 1012.2 1012.1 0.0
29/05:30pm 31.2 33.3 21.7 57 6.4 ESE 13 19 7 10 1011.8 1011.7 0.0
29/05:00pm 31.7 34.0 22.1 56 6.5 ESE 13 17 7 9 1011.4 1011.3 0.0
29/04:30pm 32.4 35.1 22.8 57 6.6 E 13 17 7 9 1011.2 1011.1 0.0
29/04:00pm 32.2 33.9 22.3 56 6.8 ESE 17 26 9 14 1011.1 1011.0 0.0
29/03:30pm 32.6 35.1 22.4 55 7.0 E 13 24 7 13 1011.0 1010.9 0.0

Other Formats:

Comma delimited format used in spreadsheet applications
http://www.bom.gov.au/fwo/IDD60801/IDD60801.94153.axf

JavaScript Object Notation format (JSON) in row-major order
http://www.bom.gov.au/fwo/IDD60801/IDD60801.94153.json